createdAt,value
2023-01-13T00:04:01.219Z,16.42
2023-01-13T00:09:03.609Z,16.41
2023-01-13T00:14:05.898Z,16.42
2023-01-13T00:19:08.061Z,16.41
2023-01-13T00:24:11.317Z,16.39
2023-01-13T00:29:13.580Z,16.40
2023-01-13T00:34:16.755Z,16.43
2023-01-13T00:39:18.926Z,16.43
2023-01-13T00:44:21.129Z,16.42
2023-01-13T00:49:23.261Z,16.41
2023-01-13T00:54:25.516Z,16.39
2023-01-13T00:59:27.645Z,16.39
2023-01-13T01:04:29.814Z,16.39
2023-01-13T01:09:34.749Z,16.38
2023-01-13T01:14:36.846Z,16.38
2023-01-13T01:19:39.216Z,16.38
2023-01-13T01:24:41.341Z,16.38
2023-01-13T01:29:43.543Z,16.40
2023-01-13T01:34:45.738Z,16.41
2023-01-13T01:39:47.855Z,16.42
2023-01-13T01:44:55.281Z,16.40
2023-01-13T01:49:59.098Z,16.38
2023-01-13T01:55:04.316Z,16.35
2023-01-13T02:00:07.106Z,16.38
2023-01-13T02:05:15.870Z,16.36
2023-01-13T02:10:22.148Z,16.37
2023-01-13T02:15:47.614Z,16.36
2023-01-13T02:21:04.511Z,16.36
2023-01-13T02:26:24.881Z,16.35
2023-01-13T02:31:45.121Z,16.35
2023-01-13T02:37:17.103Z,16.35
2023-01-13T02:42:52.735Z,16.35
2023-01-13T02:47:57.833Z,16.38
2023-01-13T02:53:09.059Z,16.38
2023-01-13T02:58:15.641Z,16.37
2023-01-13T03:03:17.857Z,16.37
2023-01-13T03:08:23.309Z,16.35
2023-01-13T03:13:43.717Z,16.35
2023-01-13T03:19:08.842Z,16.35
2023-01-13T03:24:28.365Z,16.34
2023-01-13T03:29:41.825Z,16.36
2023-01-13T03:34:51.915Z,16.37
2023-01-13T03:39:57.698Z,16.35
2023-01-13T03:45:07.265Z,16.36
2023-01-13T03:50:21.837Z,16.35
2023-01-13T03:55:31.724Z,16.35
2023-01-13T04:00:54.236Z,16.35
2023-01-13T04:06:09.148Z,16.37
2023-01-13T04:11:18.808Z,16.37
2023-01-13T04:16:21.160Z,16.35
2023-01-13T04:21:23.463Z,16.34
2023-01-13T04:26:25.607Z,16.35
2023-01-13T04:31:27.776Z,16.35
2023-01-13T04:36:29.939Z,16.37
2023-01-13T04:41:50.658Z,16.36
2023-01-13T04:46:52.935Z,16.36
2023-01-13T04:51:55.055Z,16.32
2023-01-13T04:56:57.181Z,16.35
2023-01-13T05:01:59.357Z,16.35
2023-01-13T05:07:01.685Z,16.37
2023-01-13T05:12:22.778Z,16.35
2023-01-13T05:17:25.783Z,16.33
2023-01-13T05:22:46.735Z,16.32
2023-01-13T05:27:50.105Z,16.33
2023-01-13T05:32:52.486Z,16.27
2023-01-13T05:37:54.985Z,16.32
2023-01-13T05:43:24.870Z,16.30
2023-01-13T05:48:30.748Z,16.33
2023-01-13T05:53:33.907Z,16.36
2023-01-13T05:58:35.980Z,16.34
2023-01-13T06:03:38.675Z,16.32
2023-01-13T06:08:40.832Z,16.33
2023-01-13T06:13:42.956Z,16.32
2023-01-13T06:18:45.206Z,16.32
2023-01-13T06:23:47.318Z,16.32
2023-01-13T06:28:50.302Z,16.32
2023-01-13T06:34:02.372Z,16.31
2023-01-13T06:39:05.167Z,16.31
2023-01-13T06:44:07.442Z,16.32
2023-01-13T06:49:09.903Z,16.30
2023-01-13T06:54:12.087Z,16.31
2023-01-13T06:59:14.290Z,16.32
2023-01-13T07:04:16.701Z,16.33
2023-01-13T07:09:18.876Z,16.34
2023-01-13T07:14:39.720Z,16.33
2023-01-13T07:19:41.865Z,16.31
2023-01-13T07:24:43.950Z,16.29
2023-01-13T07:29:46.127Z,16.30
2023-01-13T07:34:48.329Z,16.29
2023-01-13T07:39:50.536Z,16.29
2023-01-13T07:44:52.601Z,16.30
2023-01-13T07:49:54.752Z,16.31
2023-01-13T07:54:56.844Z,16.33
2023-01-13T07:59:58.988Z,16.31
2023-01-13T08:05:01.474Z,16.29
2023-01-13T08:10:04.750Z,16.29
2023-01-13T08:15:10.281Z,16.29
2023-01-13T08:20:12.534Z,16.28
2023-01-13T08:25:14.707Z,16.30
2023-01-13T08:30:17.215Z,16.27
2023-01-13T08:35:21.378Z,16.32
2023-01-13T08:40:23.498Z,16.31
2023-01-13T08:45:25.727Z,16.29
2023-01-13T08:50:27.971Z,16.28
2023-01-13T08:55:30.135Z,16.30
2023-01-13T09:00:32.200Z,16.31
2023-01-13T09:05:35.817Z,16.31
2023-01-13T09:10:37.924Z,16.29
2023-01-13T09:15:41.705Z,16.29
2023-01-13T09:20:44.724Z,16.28
2023-01-13T09:25:47.208Z,16.29
2023-01-13T09:30:49.389Z,16.32
2023-01-13T09:35:51.512Z,16.31
2023-01-13T09:40:54.852Z,16.31
2023-01-13T09:46:04.502Z,16.31
2023-01-13T09:51:15.005Z,16.29
2023-01-13T09:56:17.547Z,16.30
2023-01-13T10:01:34.934Z,16.31
2023-01-13T10:06:39.548Z,16.32
2023-01-13T10:12:04.185Z,16.33
2023-01-13T10:17:18.442Z,16.32
2023-01-13T10:22:23.408Z,16.31
2023-01-13T10:27:32.684Z,16.31
2023-01-13T10:32:34.765Z,16.33
2023-01-13T10:37:36.922Z,16.32
2023-01-13T10:42:38.985Z,16.32
2023-01-13T10:47:43.069Z,16.32
2023-01-13T10:53:03.724Z,16.30
2023-01-13T10:58:13.173Z,16.32
2023-01-13T11:03:24.329Z,16.33
2023-01-13T11:08:45.428Z,16.34
2023-01-13T11:14:09.289Z,16.33
2023-01-13T11:19:18.578Z,16.32
2023-01-13T11:24:23.771Z,16.31
2023-01-13T11:29:40.342Z,16.33
2023-01-13T11:34:47.399Z,16.33
2023-01-13T11:40:18.443Z,16.34
2023-01-13T11:45:30.462Z,16.35
2023-01-13T11:50:48.446Z,16.33
2023-01-13T11:56:15.429Z,16.33
2023-01-13T12:01:23.623Z,16.33
2023-01-13T12:06:36.602Z,16.31
2023-01-13T12:12:12.607Z,16.34
2023-01-13T12:17:31.746Z,16.35
2023-01-13T12:22:36.891Z,16.29
2023-01-13T12:27:45.908Z,16.35
2023-01-13T12:32:51.177Z,16.35
2023-01-13T12:38:03.540Z,16.34
2023-01-13T12:43:36.408Z,16.33
2023-01-13T12:49:02.516Z,16.33
2023-01-13T12:54:30.523Z,16.33
2023-01-13T12:59:33.976Z,16.35
2023-01-13T13:04:52.072Z,16.35
2023-01-13T13:10:00.892Z,16.36
2023-01-13T13:15:04.378Z,16.39
2023-01-13T13:20:44.938Z,16.35
2023-01-13T13:26:20.682Z,16.36
2023-01-13T13:32:01.108Z,16.35
2023-01-13T13:37:30.549Z,16.38
2023-01-13T13:42:59.864Z,16.32
2023-01-13T13:48:29.439Z,16.35
2023-01-13T13:53:39.483Z,16.37
2023-01-13T13:58:41.457Z,16.33
2023-01-13T14:03:43.664Z,16.38
2023-01-13T14:08:50.358Z,16.38
2023-01-13T14:14:17.433Z,16.39
2023-01-13T14:19:51.342Z,16.39
2023-01-13T14:24:57.925Z,16.40
2023-01-13T14:30:01.809Z,16.39
2023-01-13T14:35:08.252Z,16.39
2023-01-13T14:40:39.683Z,16.38
2023-01-13T14:46:02.589Z,16.41
2023-01-13T14:51:09.939Z,16.40
2023-01-13T14:56:38.385Z,16.40
2023-01-13T15:01:40.628Z,16.42
2023-01-13T15:06:47.346Z,16.42
2023-01-13T15:11:49.480Z,16.40
2023-01-13T15:16:51.631Z,16.41
2023-01-13T15:21:53.722Z,16.40
2023-01-13T15:26:55.839Z,16.41
2023-01-13T15:31:58.079Z,16.43
2023-01-13T15:37:00.136Z,16.45
2023-01-13T15:42:20.896Z,16.41
2023-01-13T15:47:25.209Z,16.43
2023-01-13T15:52:28.038Z,16.40
2023-01-13T15:57:34.475Z,16.43
2023-01-13T16:02:36.639Z,16.44
2023-01-13T16:07:39.062Z,16.44
2023-01-13T16:12:41.734Z,16.41
2023-01-13T16:17:45.719Z,16.41
2023-01-13T16:22:48.039Z,16.42
2023-01-13T16:27:51.072Z,16.42
2023-01-13T16:32:53.482Z,16.40
2023-01-13T16:37:58.659Z,16.41
2023-01-13T16:43:03.397Z,16.43
2023-01-13T16:48:06.328Z,16.44
2023-01-13T16:53:09.890Z,16.46
2023-01-13T16:58:20.613Z,16.43
2023-01-13T17:03:22.845Z,16.42
2023-01-13T17:08:24.983Z,16.41
2023-01-13T17:13:27.237Z,16.41
2023-01-13T17:18:29.377Z,16.43
2023-01-13T17:23:31.736Z,16.41
2023-01-13T17:28:33.873Z,16.42
2023-01-13T17:33:37.368Z,16.42
2023-01-13T17:38:39.529Z,16.39
2023-01-13T17:43:41.796Z,16.42
2023-01-13T17:48:44.031Z,16.40
2023-01-13T17:53:46.478Z,16.40
2023-01-13T17:58:48.643Z,16.41
2023-01-13T18:03:50.886Z,16.40
2023-01-13T18:08:53.408Z,16.40
2023-01-13T18:13:57.284Z,16.42
2023-01-13T18:19:18.617Z,16.42
2023-01-13T18:24:39.313Z,16.43
2023-01-13T18:29:41.384Z,16.43
2023-01-13T18:34:43.593Z,16.41
2023-01-13T18:39:45.727Z,16.39
2023-01-13T18:44:47.914Z,16.41
2023-01-13T18:49:49.962Z,16.43
2023-01-13T18:54:52.524Z,16.43
2023-01-13T18:59:57.196Z,16.42
2023-01-13T19:04:59.289Z,16.41
2023-01-13T19:10:01.867Z,16.41
2023-01-13T19:15:04.734Z,16.41
2023-01-13T19:20:07.634Z,16.40
2023-01-13T19:25:09.988Z,16.44
2023-01-13T19:30:12.781Z,16.40
2023-01-13T19:35:17.853Z,16.38
2023-01-13T19:40:20.111Z,16.40
2023-01-13T19:45:28.232Z,16.42
2023-01-13T19:50:30.393Z,16.42
2023-01-13T19:55:32.576Z,16.40
2023-01-13T20:00:35.118Z,16.39
2023-01-13T20:05:37.265Z,16.38
2023-01-13T20:10:40.701Z,16.40
2023-01-13T20:15:44.198Z,16.41
2023-01-13T20:20:46.420Z,16.41
2023-01-13T20:25:48.541Z,16.40
2023-01-13T20:30:51.046Z,16.37
2023-01-13T20:35:59.692Z,16.37
2023-01-13T20:41:22.697Z,16.39
2023-01-13T20:46:24.840Z,16.40
2023-01-13T20:51:27.152Z,16.40
2023-01-13T20:56:29.260Z,16.37
2023-01-13T21:01:32.460Z,16.35
2023-01-13T21:06:35.330Z,16.37
2023-01-13T21:11:55.946Z,16.38
2023-01-13T21:16:58.093Z,16.38
2023-01-13T21:22:00.341Z,16.37
2023-01-13T21:27:02.776Z,16.35
2023-01-13T21:32:05.106Z,16.35
2023-01-13T21:37:07.310Z,16.34
2023-01-13T21:42:33.329Z,16.32
2023-01-13T21:47:50.640Z,16.34
2023-01-13T21:52:53.223Z,16.35
2023-01-13T21:58:15.463Z,16.35
2023-01-13T22:03:18.867Z,16.35
2023-01-13T22:08:20.965Z,16.33
2023-01-13T22:13:42.132Z,16.33
2023-01-13T22:18:44.422Z,16.33
2023-01-13T22:23:46.658Z,16.32
2023-01-13T22:28:48.787Z,16.32
2023-01-13T22:33:56.812Z,16.33
2023-01-13T22:39:00.772Z,16.33
2023-01-13T22:44:03.021Z,16.34
2023-01-13T22:49:05.169Z,16.32
2023-01-13T22:54:07.410Z,16.31
2023-01-13T22:59:12.552Z,16.31
2023-01-13T23:04:14.957Z,16.32
2023-01-13T23:09:17.146Z,16.33
2023-01-13T23:14:19.250Z,16.32
2023-01-13T23:19:23.659Z,16.30
2023-01-13T23:24:26.864Z,16.29
2023-01-13T23:29:28.961Z,16.29
2023-01-13T23:34:31.057Z,16.30
2023-01-13T23:39:33.191Z,16.32
2023-01-13T23:44:35.313Z,16.29
2023-01-13T23:49:37.351Z,16.29
2023-01-13T23:54:39.445Z,16.28
2023-01-13T23:59:41.591Z,16.29
